sensor_id;sensor_type;location;lat;lon;timestamp;pressure;altitude;pressure_sealevel;temperature;humidity
25722;BME280;13578;53.450;15.496;2023-09-08T00:06:33;100670.50;;;16.69;100.00
25722;BME280;13578;53.450;15.496;2023-09-08T00:09:35;100676.72;;;16.71;100.00
25722;BME280;13578;53.450;15.496;2023-09-08T00:12:35;100665.09;;;16.67;100.00
25722;BME280;13578;53.450;15.496;2023-09-08T00:15:36;100670.25;;;16.62;100.00
25722;BME280;13578;53.450;15.496;2023-09-08T00:18:37;100670.56;;;16.59;100.00
25722;BME280;13578;53.450;15.496;2023-09-08T00:21:38;100672.63;;;16.57;100.00
25722;BME280;13578;53.450;15.496;2023-09-08T00:24:38;100672.00;;;16.63;100.00
25722;BME280;13578;53.450;15.496;2023-09-08T00:27:39;100662.81;;;16.63;100.00
25722;BME280;13578;53.450;15.496;2023-09-08T00:30:40;100653.16;;;16.67;100.00
25722;BME280;13578;53.450;15.496;2023-09-08T00:33:40;100657.34;;;16.71;100.00
25722;BME280;13578;53.450;15.496;2023-09-08T00:36:44;100656.78;;;16.67;100.00
25722;BME280;13578;53.450;15.496;2023-09-08T00:39:45;100661.47;;;16.67;100.00
25722;BME280;13578;53.450;15.496;2023-09-08T00:42:45;100651.56;;;16.64;100.00
25722;BME280;13578;53.450;15.496;2023-09-08T00:45:48;100660.34;;;16.60;100.00
25722;BME280;13578;53.450;15.496;2023-09-08T00:48:49;100662.72;;;16.55;100.00
25722;BME280;13578;53.450;15.496;2023-09-08T00:51:50;100656.47;;;16.52;100.00
25722;BME280;13578;53.450;15.496;2023-09-08T00:54:51;100654.53;;;16.53;100.00
25722;BME280;13578;53.450;15.496;2023-09-08T00:57:52;100656.06;;;16.47;100.00
25722;BME280;13578;53.450;15.496;2023-09-08T01:00:53;100656.06;;;16.47;100.00
25722;BME280;13578;53.450;15.496;2023-09-08T01:03:53;100649.91;;;16.54;100.00
25722;BME280;13578;53.450;15.496;2023-09-08T01:06:55;100654.81;;;16.60;100.00
25722;BME280;13578;53.450;15.496;2023-09-08T01:09:56;100654.50;;;16.63;100.00
25722;BME280;13578;53.450;15.496;2023-09-08T01:12:57;100660.19;;;16.61;100.00
25722;BME280;13578;53.450;15.496;2023-09-08T01:15:58;100656.84;;;16.58;100.00
25722;BME280;13578;53.450;15.496;2023-09-08T01:18:59;100659.97;;;16.55;100.00
25722;BME280;13578;53.450;15.496;2023-09-08T01:22:24;100654.97;;;16.58;100.00
25722;BME280;13578;53.450;15.496;2023-09-08T01:25:31;100652.34;;;16.57;100.00
25722;BME280;13578;53.450;15.496;2023-09-08T01:28:33;100653.84;;;16.51;100.00
25722;BME280;13578;53.450;15.496;2023-09-08T01:31:35;100657.19;;;16.55;100.00
25722;BME280;13578;53.450;15.496;2023-09-08T01:34:37;100651.84;;;16.43;100.00
25722;BME280;13578;53.450;15.496;2023-09-08T01:37:49;100641.22;;;16.39;100.00
25722;BME280;13578;53.450;15.496;2023-09-08T01:40:50;100631.50;;;16.34;100.00
25722;BME280;13578;53.450;15.496;2023-09-08T01:43:51;100640.22;;;16.40;100.00
25722;BME280;13578;53.450;15.496;2023-09-08T01:46:52;100634.84;;;16.38;100.00
25722;BME280;13578;53.450;15.496;2023-09-08T01:49:57;100641.56;;;16.35;100.00
25722;BME280;13578;53.450;15.496;2023-09-08T01:52:57;100637.44;;;16.40;100.00
25722;BME280;13578;53.450;15.496;2023-09-08T01:55:58;100638.63;;;16.37;100.00
25722;BME280;13578;53.450;15.496;2023-09-08T01:58:59;100634.91;;;16.28;100.00
25722;BME280;13578;53.450;15.496;2023-09-08T02:02:00;100627.34;;;16.20;100.00
25722;BME280;13578;53.450;15.496;2023-09-08T02:05:00;100628.69;;;16.16;100.00
25722;BME280;13578;53.450;15.496;2023-09-08T02:08:01;100630.59;;;16.16;100.00
25722;BME280;13578;53.450;15.496;2023-09-08T02:11:04;100619.50;;;16.16;100.00
25722;BME280;13578;53.450;15.496;2023-09-08T02:14:04;100621.31;;;16.07;100.00
25722;BME280;13578;53.450;15.496;2023-09-08T02:17:05;100624.72;;;16.01;100.00
25722;BME280;13578;53.450;15.496;2023-09-08T02:20:07;100627.06;;;15.96;100.00
25722;BME280;13578;53.450;15.496;2023-09-08T02:23:08;100613.06;;;15.97;100.00
25722;BME280;13578;53.450;15.496;2023-09-08T02:26:08;100604.59;;;15.99;100.00
25722;BME280;13578;53.450;15.496;2023-09-08T02:29:09;100604.47;;;16.00;100.00
25722;BME280;13578;53.450;15.496;2023-09-08T02:32:10;100600.41;;;15.95;100.00
25722;BME280;13578;53.450;15.496;2023-09-08T02:35:11;100591.84;;;15.88;100.00
25722;BME280;13578;53.450;15.496;2023-09-08T02:38:11;100602.91;;;15.88;100.00
25722;BME280;13578;53.450;15.496;2023-09-08T02:41:12;100591.44;;;15.83;100.00
25722;BME280;13578;53.450;15.496;2023-09-08T02:44:13;100600.16;;;15.78;100.00
25722;BME280;13578;53.450;15.496;2023-09-08T02:47:13;100597.28;;;15.70;100.00
25722;BME280;13578;53.450;15.496;2023-09-08T02:50:14;100589.44;;;15.65;100.00
25722;BME280;13578;53.450;15.496;2023-09-08T02:53:15;100582.16;;;15.64;100.00
25722;BME280;13578;53.450;15.496;2023-09-08T02:56:16;100581.28;;;15.64;100.00
25722;BME280;13578;53.450;15.496;2023-09-08T02:59:16;100576.78;;;15.63;100.00
25722;BME280;13578;53.450;15.496;2023-09-08T03:02:17;100572.84;;;15.65;100.00
25722;BME280;13578;53.450;15.496;2023-09-08T03:05:18;100567.63;;;15.62;100.00
25722;BME280;13578;53.450;15.496;2023-09-08T03:08:18;100565.56;;;15.64;100.00
25722;BME280;13578;53.450;15.496;2023-09-08T03:11:19;100560.75;;;15.66;100.00
25722;BME280;13578;53.450;15.496;2023-09-08T03:14:20;100562.09;;;15.62;100.00
25722;BME280;13578;53.450;15.496;2023-09-08T03:17:20;100549.16;;;15.53;100.00
25722;BME280;13578;53.450;15.496;2023-09-08T03:20:21;100557.47;;;15.53;100.00
25722;BME280;13578;53.450;15.496;2023-09-08T03:23:22;100556.59;;;15.52;100.00
25722;BME280;13578;53.450;15.496;2023-09-08T03:26:22;100556.34;;;15.46;100.00
25722;BME280;13578;53.450;15.496;2023-09-08T03:29:23;100556.78;;;15.41;100.00
25722;BME280;13578;53.450;15.496;2023-09-08T03:32:24;100558.00;;;15.29;100.00
25722;BME280;13578;53.450;15.496;2023-09-08T03:35:25;100564.59;;;15.18;100.00
25722;BME280;13578;53.450;15.496;2023-09-08T03:38:26;100563.69;;;15.17;100.00
25722;BME280;13578;53.450;15.496;2023-09-08T03:41:27;100556.72;;;15.13;100.00
25722;BME280;13578;53.450;15.496;2023-09-08T03:44:28;100552.66;;;15.07;100.00
25722;BME280;13578;53.450;15.496;2023-09-08T03:47:29;100548.88;;;15.08;100.00
25722;BME280;13578;53.450;15.496;2023-09-08T03:50:30;100549.16;;;15.05;100.00
25722;BME280;13578;53.450;15.496;2023-09-08T03:53:31;100551.09;;;14.95;100.00
25722;BME280;13578;53.450;15.496;2023-09-08T03:56:31;100556.06;;;14.91;100.00
25722;BME280;13578;53.450;15.496;2023-09-08T03:59:32;100552.13;;;14.94;100.00
25722;BME280;13578;53.450;15.496;2023-09-08T04:02:33;100546.19;;;14.89;100.00
25722;BME280;13578;53.450;15.496;2023-09-08T04:05:34;100545.75;;;14.93;100.00
25722;BME280;13578;53.450;15.496;2023-09-08T04:08:34;100539.31;;;14.93;100.00
25722;BME280;13578;53.450;15.496;2023-09-08T04:11:35;100534.97;;;14.90;100.00
25722;BME280;13578;53.450;15.496;2023-09-08T04:14:36;100525.94;;;14.88;100.00
25722;BME280;13578;53.450;15.496;2023-09-08T04:17:37;100530.28;;;14.91;100.00
25722;BME280;13578;53.450;15.496;2023-09-08T04:20:38;100526.53;;;14.92;100.00
25722;BME280;13578;53.450;15.496;2023-09-08T04:23:38;100526.22;;;14.95;100.00
25722;BME280;13578;53.450;15.496;2023-09-08T04:26:39;100521.88;;;14.92;100.00
25722;BME280;13578;53.450;15.496;2023-09-08T04:29:40;100528.69;;;14.98;100.00
25722;BME280;13578;53.450;15.496;2023-09-08T04:32:41;100528.69;;;14.98;100.00
25722;BME280;13578;53.450;15.496;2023-09-08T04:35:42;100529.44;;;14.90;100.00
25722;BME280;13578;53.450;15.496;2023-09-08T04:38:43;100526.53;;;14.92;100.00
25722;BME280;13578;53.450;15.496;2023-09-08T04:41:45;100521.00;;;14.92;100.00
25722;BME280;13578;53.450;15.496;2023-09-08T04:44:45;100522.44;;;14.96;100.00
25722;BME280;13578;53.450;15.496;2023-09-08T04:47:46;100520.09;;;15.01;100.00
25722;BME280;13578;53.450;15.496;2023-09-08T04:50:47;100520.22;;;15.09;100.00
25722;BME280;13578;53.450;15.496;2023-09-08T04:53:48;100518.59;;;15.17;100.00
25722;BME280;13578;53.450;15.496;2023-09-08T04:56:48;100530.81;;;15.24;100.00
25722;BME280;13578;53.450;15.496;2023-09-08T04:59:49;100533.56;;;15.24;100.00
25722;BME280;13578;53.450;15.496;2023-09-08T05:02:50;100540.63;;;15.36;100.00
25722;BME280;13578;53.450;15.496;2023-09-08T05:05:51;100541.94;;;15.42;100.00
25722;BME280;13578;53.450;15.496;2023-09-08T05:08:51;100551.78;;;15.54;100.00
25722;BME280;13578;53.450;15.496;2023-09-08T05:11:52;100553.19;;;15.68;100.00
25722;BME280;13578;53.450;15.496;2023-09-08T05:14:53;100571.31;;;15.81;100.00
25722;BME280;13578;53.450;15.496;2023-09-08T05:17:57;100565.75;;;15.91;100.00
25722;BME280;13578;53.450;15.496;2023-09-08T05:20:57;100569.50;;;15.99;100.00
25722;BME280;13578;53.450;15.496;2023-09-08T05:23:58;100582.81;;;16.14;100.00
25722;BME280;13578;53.450;15.496;2023-09-08T05:26:59;100591.22;;;16.22;100.00
25722;BME280;13578;53.450;15.496;2023-09-08T05:30:00;100587.91;;;16.37;100.00
25722;BME280;13578;53.450;15.496;2023-09-08T05:33:00;100596.28;;;16.45;100.00
25722;BME280;13578;53.450;15.496;2023-09-08T05:36:01;100587.91;;;16.55;100.00
25722;BME280;13578;53.450;15.496;2023-09-08T05:39:02;100597.09;;;16.55;100.00
25722;BME280;13578;53.450;15.496;2023-09-08T05:42:03;100599.09;;;16.63;100.00
25722;BME280;13578;53.450;15.496;2023-09-08T05:45:04;100593.28;;;16.74;100.00
25722;BME280;13578;53.450;15.496;2023-09-08T05:48:05;100600.00;;;16.90;100.00
25722;BME280;13578;53.450;15.496;2023-09-08T05:51:06;100596.31;;;16.99;100.00
25722;BME280;13578;53.450;15.496;2023-09-08T05:54:06;100593.97;;;17.12;100.00
25722;BME280;13578;53.450;15.496;2023-09-08T05:57:07;100610.88;;;17.27;100.00
25722;BME280;13578;53.450;15.496;2023-09-08T06:00:08;100623.25;;;17.33;100.00
25722;BME280;13578;53.450;15.496;2023-09-08T06:03:09;100620.84;;;17.38;100.00
25722;BME280;13578;53.450;15.496;2023-09-08T06:06:10;100622.16;;;17.52;100.00
25722;BME280;13578;53.450;15.496;2023-09-08T06:09:10;100621.19;;;17.61;100.00
25722;BME280;13578;53.450;15.496;2023-09-08T06:12:12;100635.06;;;17.70;100.00
25722;BME280;13578;53.450;15.496;2023-09-08T06:15:13;100628.91;;;17.76;100.00
25722;BME280;13578;53.450;15.496;2023-09-08T06:18:13;100641.44;;;17.88;100.00
25722;BME280;13578;53.450;15.496;2023-09-08T06:21:14;100648.25;;;17.94;100.00
25722;BME280;13578;53.450;15.496;2023-09-08T06:24:15;100651.94;;;18.03;100.00
25722;BME280;13578;53.450;15.496;2023-09-08T06:27:15;100656.03;;;18.17;100.00
25722;BME280;13578;53.450;15.496;2023-09-08T06:30:17;100668.69;;;18.19;100.00
25722;BME280;13578;53.450;15.496;2023-09-08T06:33:18;100669.78;;;18.27;100.00
25722;BME280;13578;53.450;15.496;2023-09-08T06:36:19;100668.38;;;18.31;100.00
25722;BME280;13578;53.450;15.496;2023-09-08T06:39:20;100662.72;;;18.49;100.00
25722;BME280;13578;53.450;15.496;2023-09-08T06:42:20;100657.84;;;18.51;100.00
25722;BME280;13578;53.450;15.496;2023-09-08T06:45:21;100667.78;;;18.62;100.00
25722;BME280;13578;53.450;15.496;2023-09-08T06:48:22;100672.34;;;18.71;100.00
25722;BME280;13578;53.450;15.496;2023-09-08T06:51:22;100668.88;;;18.85;100.00
25722;BME280;13578;53.450;15.496;2023-09-08T06:54:23;100667.00;;;18.94;100.00
25722;BME280;13578;53.450;15.496;2023-09-08T06:57:24;100669.78;;;19.02;100.00
25722;BME280;13578;53.450;15.496;2023-09-08T07:00:25;100673.09;;;19.14;100.00
25722;BME280;13578;53.450;15.496;2023-09-08T07:03:25;100671.53;;;19.36;100.00
25722;BME280;13578;53.450;15.496;2023-09-08T07:06:27;100659.00;;;19.49;100.00
25722;BME280;13578;53.450;15.496;2023-09-08T07:09:27;100668.53;;;19.63;100.00
25722;BME280;13578;53.450;15.496;2023-09-08T07:12:29;100661.72;;;19.74;100.00
25722;BME280;13578;53.450;15.496;2023-09-08T07:15:29;100662.59;;;19.91;100.00
25722;BME280;13578;53.450;15.496;2023-09-08T07:18:30;100671.81;;;19.99;100.00
25722;BME280;13578;53.450;15.496;2023-09-08T07:21:35;100667.91;;;20.09;100.00
25722;BME280;13578;53.450;15.496;2023-09-08T07:24:35;100671.56;;;20.18;100.00
25722;BME280;13578;53.450;15.496;2023-09-08T07:27:36;100666.66;;;20.20;100.00
25722;BME280;13578;53.450;15.496;2023-09-08T07:30:37;100672.03;;;20.29;100.00
25722;BME280;13578;53.450;15.496;2023-09-08T07:33:38;100679.44;;;20.45;100.00
25722;BME280;13578;53.450;15.496;2023-09-08T07:36:38;100679.09;;;20.49;100.00
25722;BME280;13578;53.450;15.496;2023-09-08T07:39:39;100679.03;;;20.57;100.00
25722;BME280;13578;53.450;15.496;2023-09-08T07:42:40;100674.09;;;20.67;100.00
25722;BME280;13578;53.450;15.496;2023-09-08T07:45:40;100677.72;;;20.68;100.00
25722;BME280;13578;53.450;15.496;2023-09-08T07:48:41;100681.91;;;20.80;100.00
25722;BME280;13578;53.450;15.496;2023-09-08T07:51:42;100686.53;;;20.88;100.00
25722;BME280;13578;53.450;15.496;2023-09-08T07:54:42;100681.22;;;21.01;100.00
25722;BME280;13578;53.450;15.496;2023-09-08T07:57:45;100675.78;;;21.08;100.00
25722;BME280;13578;53.450;15.496;2023-09-08T08:00:48;100687.31;;;21.28;100.00
25722;BME280;13578;53.450;15.496;2023-09-08T08:03:49;100679.25;;;21.48;100.00
25722;BME280;13578;53.450;15.496;2023-09-08T08:06:50;100665.41;;;21.55;100.00
25722;BME280;13578;53.450;15.496;2023-09-08T08:09:50;100672.00;;;21.62;100.00
25722;BME280;13578;53.450;15.496;2023-09-08T08:12:51;100671.63;;;21.80;100.00
25722;BME280;13578;53.450;15.496;2023-09-08T08:15:52;100670.56;;;21.96;100.00
25722;BME280;13578;53.450;15.496;2023-09-08T08:18:52;100662.78;;;22.07;100.00
25722;BME280;13578;53.450;15.496;2023-09-08T08:21:53;100668.19;;;22.23;100.00
25722;BME280;13578;53.450;15.496;2023-09-08T08:24:54;100674.16;;;22.35;100.00
25722;BME280;13578;53.450;15.496;2023-09-08T08:27:55;100666.53;;;22.44;100.00
25722;BME280;13578;53.450;15.496;2023-09-08T08:30:56;100671.50;;;22.63;100.00
25722;BME280;13578;53.450;15.496;2023-09-08T08:33:57;100672.19;;;22.65;100.00
25722;BME280;13578;53.450;15.496;2023-09-08T08:36:58;100670.81;;;22.76;100.00
25722;BME280;13578;53.450;15.496;2023-09-08T08:39:59;100669.41;;;22.87;100.00
25722;BME280;13578;53.450;15.496;2023-09-08T08:42:59;100664.75;;;22.94;100.00
25722;BME280;13578;53.450;15.496;2023-09-08T08:46:03;100666.53;;;23.02;100.00
25722;BME280;13578;53.450;15.496;2023-09-08T08:49:04;100674.13;;;23.23;100.00
25722;BME280;13578;53.450;15.496;2023-09-08T08:52:05;100661.84;;;23.24;100.00
25722;BME280;13578;53.450;15.496;2023-09-08T08:55:09;100661.13;;;23.37;100.00
25722;BME280;13578;53.450;15.496;2023-09-08T08:58:10;100667.03;;;23.49;100.00
25722;BME280;13578;53.450;15.496;2023-09-08T09:01:11;100665.53;;;23.53;100.00
25722;BME280;13578;53.450;15.496;2023-09-08T09:04:13;100644.25;;;23.59;100.00
25722;BME280;13578;53.450;15.496;2023-09-08T09:07:14;100648.22;;;23.71;100.00
25722;BME280;13578;53.450;15.496;2023-09-08T09:10:15;100639.91;;;23.85;100.00
25722;BME280;13578;53.450;15.496;2023-09-08T09:13:16;100646.25;;;23.93;100.00
25722;BME280;13578;53.450;15.496;2023-09-08T09:16:16;100648.41;;;23.98;100.00
25722;BME280;13578;53.450;15.496;2023-09-08T09:19:20;100633.38;;;24.06;100.00
25722;BME280;13578;53.450;15.496;2023-09-08T09:22:36;100633.84;;;24.09;100.00
25722;BME280;13578;53.450;15.496;2023-09-08T09:25:37;100635.75;;;24.09;100.00
25722;BME280;13578;53.450;15.496;2023-09-08T09:28:47;100639.91;;;24.13;100.00
25722;BME280;13578;53.450;15.496;2023-09-08T09:31:52;100642.09;;;24.24;100.00
25722;BME280;13578;53.450;15.496;2023-09-08T09:34:54;100638.44;;;24.31;100.00
25722;BME280;13578;53.450;15.496;2023-09-08T09:37:54;100637.81;;;24.35;100.00
25722;BME280;13578;53.450;15.496;2023-09-08T09:40:55;100636.75;;;24.36;100.00
25722;BME280;13578;53.450;15.496;2023-09-08T09:43:57;100624.50;;;24.44;100.00
25722;BME280;13578;53.450;15.496;2023-09-08T09:46:57;100636.22;;;24.61;100.00
25722;BME280;13578;53.450;15.496;2023-09-08T09:50:00;100613.31;;;24.57;100.00
25722;BME280;13578;53.450;15.496;2023-09-08T09:53:15;100623.31;;;24.67;100.00
25722;BME280;13578;53.450;15.496;2023-09-08T09:56:16;100612.09;;;24.67;100.00
25722;BME280;13578;53.450;15.496;2023-09-08T09:59:17;100609.91;;;24.69;100.00
25722;BME280;13578;53.450;15.496;2023-09-08T10:02:18;100583.34;;;24.65;100.00
25722;BME280;13578;53.450;15.496;2023-09-08T10:05:24;100591.09;;;24.63;100.00
25722;BME280;13578;53.450;15.496;2023-09-08T10:08:25;100596.97;;;24.68;100.00
25722;BME280;13578;53.450;15.496;2023-09-08T10:11:28;100609.31;;;24.80;100.00
25722;BME280;13578;53.450;15.496;2023-09-08T10:14:31;100604.75;;;24.86;100.00
25722;BME280;13578;53.450;15.496;2023-09-08T10:17:35;100598.06;;;24.87;100.00
25722;BME280;13578;53.450;15.496;2023-09-08T10:20:36;100588.78;;;24.93;100.00
25722;BME280;13578;53.450;15.496;2023-09-08T10:23:43;100590.31;;;24.89;100.00
25722;BME280;13578;53.450;15.496;2023-09-08T10:27:10;100586.44;;;24.90;100.00
25722;BME280;13578;53.450;15.496;2023-09-08T10:30:12;100590.75;;;24.93;100.00
25722;BME280;13578;53.450;15.496;2023-09-08T10:33:15;100600.47;;;24.97;100.00
25722;BME280;13578;53.450;15.496;2023-09-08T10:36:17;100588.16;;;24.91;100.00
25722;BME280;13578;53.450;15.496;2023-09-08T10:42:43;100614.31;;;25.12;100.00
25722;BME280;13578;53.450;15.496;2023-09-08T10:45:48;100584.94;;;25.14;100.00
25722;BME280;13578;53.450;15.496;2023-09-08T10:48:48;100598.31;;;25.12;100.00
25722;BME280;13578;53.450;15.496;2023-09-08T10:51:49;100579.75;;;25.25;100.00
25722;BME280;13578;53.450;15.496;2023-09-08T10:54:52;100584.72;;;25.16;100.00
25722;BME280;13578;53.450;15.496;2023-09-08T10:57:54;100584.50;;;25.17;100.00
25722;BME280;13578;53.450;15.496;2023-09-08T11:00:59;100558.78;;;25.20;100.00
25722;BME280;13578;53.450;15.496;2023-09-08T11:04:04;100595.28;;;25.20;100.00
25722;BME280;13578;53.450;15.496;2023-09-08T11:07:09;100607.19;;;25.29;100.00
25722;BME280;13578;53.450;15.496;2023-09-08T11:10:11;100564.38;;;25.34;100.00
25722;BME280;13578;53.450;15.496;2023-09-08T11:13:12;100572.81;;;25.34;100.00
25722;BME280;13578;53.450;15.496;2023-09-08T11:16:15;100584.94;;;25.34;100.00
25722;BME280;13578;53.450;15.496;2023-09-08T11:19:16;100586.91;;;25.41;100.00
25722;BME280;13578;53.450;15.496;2023-09-08T11:22:17;100564.44;;;25.41;100.00
25722;BME280;13578;53.450;15.496;2023-09-08T11:25:20;100555.16;;;25.40;100.00
25722;BME280;13578;53.450;15.496;2023-09-08T11:28:24;100567.88;;;25.49;100.00
25722;BME280;13578;53.450;15.496;2023-09-08T11:31:27;100552.50;;;25.59;100.00
25722;BME280;13578;53.450;15.496;2023-09-08T11:34:28;100578.44;;;25.61;100.00
25722;BME280;13578;53.450;15.496;2023-09-08T11:37:29;100558.13;;;25.59;100.00
25722;BME280;13578;53.450;15.496;2023-09-08T11:40:30;100548.59;;;25.66;100.00
25722;BME280;13578;53.450;15.496;2023-09-08T11:43:31;100539.97;;;25.68;100.00
25722;BME280;13578;53.450;15.496;2023-09-08T11:46:33;100564.56;;;25.79;100.00
25722;BME280;13578;53.450;15.496;2023-09-08T11:49:38;100571.91;;;25.80;100.00
25722;BME280;13578;53.450;15.496;2023-09-08T11:52:39;100534.72;;;25.78;100.00
25722;BME280;13578;53.450;15.496;2023-09-08T11:55:41;100528.47;;;25.76;100.00
25722;BME280;13578;53.450;15.496;2023-09-08T11:58:42;100513.53;;;25.76;100.00
25722;BME280;13578;53.450;15.496;2023-09-08T12:01:43;100521.31;;;25.74;100.00
25722;BME280;13578;53.450;15.496;2023-09-08T12:04:45;100517.00;;;25.71;100.00
25722;BME280;13578;53.450;15.496;2023-09-08T12:07:46;100527.81;;;25.81;100.00
25722;BME280;13578;53.450;15.496;2023-09-08T12:10:46;100513.13;;;25.79;100.00
25722;BME280;13578;53.450;15.496;2023-09-08T12:13:47;100505.53;;;25.79;100.00
25722;BME280;13578;53.450;15.496;2023-09-08T12:16:48;100509.19;;;25.87;100.00
25722;BME280;13578;53.450;15.496;2023-09-08T12:19:48;100515.25;;;25.83;100.00
25722;BME280;13578;53.450;15.496;2023-09-08T12:22:50;100526.47;;;25.90;100.00
25722;BME280;13578;53.450;15.496;2023-09-08T12:25:52;100507.91;;;25.82;100.00
25722;BME280;13578;53.450;15.496;2023-09-08T12:28:53;100514.59;;;25.88;100.00
25722;BME280;13578;53.450;15.496;2023-09-08T12:31:53;100531.19;;;25.96;100.00
25722;BME280;13578;53.450;15.496;2023-09-08T12:34:54;100508.94;;;25.95;100.00
25722;BME280;13578;53.450;15.496;2023-09-08T12:37:59;100512.63;;;25.95;100.00
25722;BME280;13578;53.450;15.496;2023-09-08T12:41:00;100477.16;;;25.88;100.00
25722;BME280;13578;53.450;15.496;2023-09-08T12:44:01;100492.31;;;25.87;100.00
25722;BME280;13578;53.450;15.496;2023-09-08T12:47:01;100479.34;;;25.85;100.00
25722;BME280;13578;53.450;15.496;2023-09-08T12:50:03;100500.97;;;25.92;100.00
25722;BME280;13578;53.450;15.496;2023-09-08T12:53:04;100476.09;;;25.89;100.00
25722;BME280;13578;53.450;15.496;2023-09-08T12:56:05;100497.91;;;25.93;100.00
25722;BME280;13578;53.450;15.496;2023-09-08T12:59:06;100475.84;;;25.97;100.00
25722;BME280;13578;53.450;15.496;2023-09-08T13:02:06;100458.06;;;26.03;100.00
25722;BME280;13578;53.450;15.496;2023-09-08T13:05:07;100439.06;;;25.98;100.00
25722;BME280;13578;53.450;15.496;2023-09-08T13:08:08;100471.13;;;25.91;100.00
25722;BME280;13578;53.450;15.496;2023-09-08T13:11:09;100471.13;;;25.91;100.00
25722;BME280;13578;53.450;15.496;2023-09-08T13:14:10;100443.19;;;25.89;100.00
25722;BME280;13578;53.450;15.496;2023-09-08T13:17:11;100439.97;;;25.85;100.00
25722;BME280;13578;53.450;15.496;2023-09-08T13:20:12;100431.75;;;25.91;100.00
25722;BME280;13578;53.450;15.496;2023-09-08T13:23:12;100435.88;;;25.88;100.00
25722;BME280;13578;53.450;15.496;2023-09-08T13:26:13;100463.28;;;25.99;100.00
25722;BME280;13578;53.450;15.496;2023-09-08T13:29:14;100436.91;;;25.94;100.00
25722;BME280;13578;53.450;15.496;2023-09-08T13:32:15;100439.53;;;25.89;100.00
25722;BME280;13578;53.450;15.496;2023-09-08T13:35:15;100425.25;;;25.90;100.00
25722;BME280;13578;53.450;15.496;2023-09-08T13:38:16;100428.72;;;25.92;100.00
25722;BME280;13578;53.450;15.496;2023-09-08T13:41:16;100409.72;;;25.88;100.00
25722;BME280;13578;53.450;15.496;2023-09-08T13:44:18;100398.94;;;25.84;99.21
25722;BME280;13578;53.450;15.496;2023-09-08T13:47:19;100416.81;;;25.90;100.00
25722;BME280;13578;53.450;15.496;2023-09-08T13:50:20;100400.59;;;25.92;100.00
25722;BME280;13578;53.450;15.496;2023-09-08T13:53:20;100394.13;;;25.92;100.00
25722;BME280;13578;53.450;15.496;2023-09-08T13:56:21;100431.94;;;25.96;100.00
25722;BME280;13578;53.450;15.496;2023-09-08T13:59:21;100442.09;;;25.97;100.00
25722;BME280;13578;53.450;15.496;2023-09-08T14:02:25;100436.28;;;25.92;100.00
25722;BME280;13578;53.450;15.496;2023-09-08T14:05:26;100414.91;;;25.84;100.00
25722;BME280;13578;53.450;15.496;2023-09-08T14:08:27;100419.03;;;25.81;100.00
25722;BME280;13578;53.450;15.496;2023-09-08T14:11:27;100428.53;;;25.87;100.00
25722;BME280;13578;53.450;15.496;2023-09-08T14:14:28;100418.59;;;25.84;100.00
25722;BME280;13578;53.450;15.496;2023-09-08T14:17:29;100429.63;;;25.79;100.00
25722;BME280;13578;53.450;15.496;2023-09-08T14:20:30;100395.50;;;25.76;100.00
25722;BME280;13578;53.450;15.496;2023-09-08T14:23:30;100400.69;;;25.79;100.00
25722;BME280;13578;53.450;15.496;2023-09-08T14:26:31;100403.25;;;25.80;100.00
25722;BME280;13578;53.450;15.496;2023-09-08T14:29:35;100397.25;;;25.70;100.00
25722;BME280;13578;53.450;15.496;2023-09-08T14:32:36;100409.38;;;25.71;100.00
25722;BME280;13578;53.450;15.496;2023-09-08T14:35:43;100389.50;;;25.65;100.00
25722;BME280;13578;53.450;15.496;2023-09-08T14:38:45;100395.56;;;25.62;100.00
25722;BME280;13578;53.450;15.496;2023-09-08T14:41:45;100421.47;;;25.71;100.00
25722;BME280;13578;53.450;15.496;2023-09-08T14:44:46;100419.53;;;25.65;100.00
25722;BME280;13578;53.450;15.496;2023-09-08T14:47:47;100410.69;;;25.61;100.00
25722;BME280;13578;53.450;15.496;2023-09-08T14:50:47;100397.53;;;25.62;100.00
25722;BME280;13578;53.450;15.496;2023-09-08T14:53:48;100410.28;;;25.58;100.00
25722;BME280;13578;53.450;15.496;2023-09-08T14:56:49;100401.44;;;25.54;100.00
25722;BME280;13578;53.450;15.496;2023-09-08T14:59:49;100407.72;;;25.56;100.00
25722;BME280;13578;53.450;15.496;2023-09-08T15:02:54;100418.06;;;25.56;100.00
25722;BME280;13578;53.450;15.496;2023-09-08T15:05:55;100420.03;;;25.48;100.00
25722;BME280;13578;53.450;15.496;2023-09-08T15:08:55;100410.34;;;25.51;100.00
25722;BME280;13578;53.450;15.496;2023-09-08T15:11:56;100411.63;;;25.48;100.00
25722;BME280;13578;53.450;15.496;2023-09-08T15:14:57;100396.72;;;25.41;100.00
25722;BME280;13578;53.450;15.496;2023-09-08T15:17:57;100415.78;;;25.39;100.00
25722;BME280;13578;53.450;15.496;2023-09-08T15:20:59;100400.84;;;25.32;100.00
25722;BME280;13578;53.450;15.496;2023-09-08T15:23:59;100391.59;;;25.25;100.00
25722;BME280;13578;53.450;15.496;2023-09-08T15:27:00;100389.88;;;25.24;100.00
25722;BME280;13578;53.450;15.496;2023-09-08T15:30:01;100396.34;;;25.24;100.00
25722;BME280;13578;53.450;15.496;2023-09-08T15:33:03;100395.91;;;25.27;100.00